sensor_id;sensor_type;location;lat;lon;timestamp;P1;durP1;ratioP1;P2;durP2;ratioP2
4466;SDS011;2246;42.664;23.278;2023-05-24T00:02:10;17.27;;;7.53;;
4466;SDS011;2246;42.664;23.278;2023-05-24T00:04:38;12.20;;;7.03;;
4466;SDS011;2246;42.664;23.278;2023-05-24T00:07:04;16.40;;;7.25;;
4466;SDS011;2246;42.664;23.278;2023-05-24T00:09:31;15.07;;;8.07;;
4466;SDS011;2246;42.664;23.278;2023-05-24T00:11:57;17.98;;;8.43;;
4466;SDS011;2246;42.664;23.278;2023-05-24T00:14:23;18.02;;;8.80;;
4466;SDS011;2246;42.664;23.278;2023-05-24T00:16:49;17.20;;;7.90;;
4466;SDS011;2246;42.664;23.278;2023-05-24T00:19:15;13.75;;;8.00;;
4466;SDS011;2246;42.664;23.278;2023-05-24T00:21:43;13.73;;;7.90;;
4466;SDS011;2246;42.664;23.278;2023-05-24T00:24:09;12.93;;;6.97;;
4466;SDS011;2246;42.664;23.278;2023-05-24T00:26:35;16.63;;;7.32;;
4466;SDS011;2246;42.664;23.278;2023-05-24T00:29:01;14.82;;;7.55;;
4466;SDS011;2246;42.664;23.278;2023-05-24T00:31:27;12.05;;;6.60;;
4466;SDS011;2246;42.664;23.278;2023-05-24T00:33:53;12.07;;;6.85;;
4466;SDS011;2246;42.664;23.278;2023-05-24T00:36:20;11.43;;;6.63;;
4466;SDS011;2246;42.664;23.278;2023-05-24T00:38:46;12.93;;;7.03;;
4466;SDS011;2246;42.664;23.278;2023-05-24T00:41:12;12.63;;;6.80;;
4466;SDS011;2246;42.664;23.278;2023-05-24T00:43:38;9.07;;;6.00;;
4466;SDS011;2246;42.664;23.278;2023-05-24T00:48:51;18.55;;;8.75;;
4466;SDS011;2246;42.664;23.278;2023-05-24T00:51:17;11.70;;;6.43;;
4466;SDS011;2246;42.664;23.278;2023-05-24T00:53:44;12.13;;;5.75;;
4466;SDS011;2246;42.664;23.278;2023-05-24T00:56:12;9.33;;;5.57;;
4466;SDS011;2246;42.664;23.278;2023-05-24T00:58:38;11.45;;;4.90;;
4466;SDS011;2246;42.664;23.278;2023-05-24T01:01:04;13.23;;;5.72;;
4466;SDS011;2246;42.664;23.278;2023-05-24T01:03:31;12.93;;;5.82;;
4466;SDS011;2246;42.664;23.278;2023-05-24T01:05:58;11.40;;;5.85;;
4466;SDS011;2246;42.664;23.278;2023-05-24T01:16:04;8.45;;;5.20;;
4466;SDS011;2246;42.664;23.278;2023-05-24T01:18:32;10.95;;;5.93;;
4466;SDS011;2246;42.664;23.278;2023-05-24T01:21:05;8.18;;;5.38;;
4466;SDS011;2246;42.664;23.278;2023-05-24T01:23:41;9.67;;;5.80;;
4466;SDS011;2246;42.664;23.278;2023-05-24T01:28:35;13.38;;;5.40;;
4466;SDS011;2246;42.664;23.278;2023-05-24T01:31:03;9.23;;;5.35;;
4466;SDS011;2246;42.664;23.278;2023-05-24T01:33:30;15.70;;;5.78;;
4466;SDS011;2246;42.664;23.278;2023-05-24T01:35:56;12.25;;;5.90;;
4466;SDS011;2246;42.664;23.278;2023-05-24T01:38:22;11.00;;;6.10;;
4466;SDS011;2246;42.664;23.278;2023-05-24T01:40:49;9.55;;;5.43;;
4466;SDS011;2246;42.664;23.278;2023-05-24T01:43:21;7.75;;;5.25;;
4466;SDS011;2246;42.664;23.278;2023-05-24T01:45:53;7.25;;;5.13;;
4466;SDS011;2246;42.664;23.278;2023-05-24T01:48:32;13.50;;;6.03;;
4466;SDS011;2246;42.664;23.278;2023-05-24T01:50:59;9.13;;;5.47;;
4466;SDS011;2246;42.664;23.278;2023-05-24T01:53:31;8.55;;;5.45;;
4466;SDS011;2246;42.664;23.278;2023-05-24T01:56:02;8.15;;;5.30;;
4466;SDS011;2246;42.664;23.278;2023-05-24T01:58:30;17.88;;;5.43;;
4466;SDS011;2246;42.664;23.278;2023-05-24T02:00:56;11.35;;;5.53;;
4466;SDS011;2246;42.664;23.278;2023-05-24T02:03:22;10.18;;;4.85;;
4466;SDS011;2246;42.664;23.278;2023-05-24T02:05:48;9.27;;;5.53;;
4466;SDS011;2246;42.664;23.278;2023-05-24T02:08:15;9.73;;;5.65;;
4466;SDS011;2246;42.664;23.278;2023-05-24T02:10:41;9.32;;;5.40;;
4466;SDS011;2246;42.664;23.278;2023-05-24T02:13:07;13.55;;;6.07;;
4466;SDS011;2246;42.664;23.278;2023-05-24T02:15:33;8.68;;;5.63;;
4466;SDS011;2246;42.664;23.278;2023-05-24T02:18:00;9.02;;;5.55;;
4466;SDS011;2246;42.664;23.278;2023-05-24T02:20:29;11.57;;;5.68;;
4466;SDS011;2246;42.664;23.278;2023-05-24T02:22:56;8.43;;;5.22;;
4466;SDS011;2246;42.664;23.278;2023-05-24T02:25:22;10.43;;;5.72;;
4466;SDS011;2246;42.664;23.278;2023-05-24T02:27:48;16.75;;;5.32;;
4466;SDS011;2246;42.664;23.278;2023-05-24T02:30:14;6.32;;;4.72;;
4466;SDS011;2246;42.664;23.278;2023-05-24T02:32:40;13.25;;;5.07;;
4466;SDS011;2246;42.664;23.278;2023-05-24T02:35:06;8.25;;;4.30;;
4466;SDS011;2246;42.664;23.278;2023-05-24T02:37:32;11.15;;;5.10;;
4466;SDS011;2246;42.664;23.278;2023-05-24T02:39:58;13.40;;;6.15;;
4466;SDS011;2246;42.664;23.278;2023-05-24T02:42:24;9.18;;;5.78;;
4466;SDS011;2246;42.664;23.278;2023-05-24T02:44:50;8.10;;;5.93;;
4466;SDS011;2246;42.664;23.278;2023-05-24T02:47:19;7.97;;;5.70;;
4466;SDS011;2246;42.664;23.278;2023-05-24T02:49:45;14.52;;;5.40;;
4466;SDS011;2246;42.664;23.278;2023-05-24T02:52:11;12.40;;;5.80;;
4466;SDS011;2246;42.664;23.278;2023-05-24T02:54:38;12.10;;;5.75;;
4466;SDS011;2246;42.664;23.278;2023-05-24T02:57:04;12.55;;;5.43;;
4466;SDS011;2246;42.664;23.278;2023-05-24T02:59:31;15.00;;;5.82;;
4466;SDS011;2246;42.664;23.278;2023-05-24T03:02:00;11.48;;;5.00;;
4466;SDS011;2246;42.664;23.278;2023-05-24T03:04:26;11.93;;;5.30;;
4466;SDS011;2246;42.664;23.278;2023-05-24T03:06:52;9.13;;;5.18;;
4466;SDS011;2246;42.664;23.278;2023-05-24T03:09:18;12.20;;;6.13;;
4466;SDS011;2246;42.664;23.278;2023-05-24T03:11:44;13.63;;;6.65;;
4466;SDS011;2246;42.664;23.278;2023-05-24T03:14:10;11.88;;;5.78;;
4466;SDS011;2246;42.664;23.278;2023-05-24T03:16:36;11.88;;;6.47;;
4466;SDS011;2246;42.664;23.278;2023-05-24T03:19:02;11.30;;;5.68;;
4466;SDS011;2246;42.664;23.278;2023-05-24T03:21:29;10.07;;;5.90;;
4466;SDS011;2246;42.664;23.278;2023-05-24T03:23:56;10.82;;;5.47;;
4466;SDS011;2246;42.664;23.278;2023-05-24T03:26:22;9.55;;;5.15;;
4466;SDS011;2246;42.664;23.278;2023-05-24T03:28:48;9.43;;;4.57;;
4466;SDS011;2246;42.664;23.278;2023-05-24T03:31:18;11.00;;;5.63;;
4466;SDS011;2246;42.664;23.278;2023-05-24T03:33:50;9.85;;;5.57;;
4466;SDS011;2246;42.664;23.278;2023-05-24T03:36:16;15.18;;;6.10;;
4466;SDS011;2246;42.664;23.278;2023-05-24T03:38:42;11.07;;;5.78;;
4466;SDS011;2246;42.664;23.278;2023-05-24T03:41:09;8.88;;;5.90;;
4466;SDS011;2246;42.664;23.278;2023-05-24T03:43:35;11.57;;;6.28;;
4466;SDS011;2246;42.664;23.278;2023-05-24T03:46:01;8.93;;;5.85;;
4466;SDS011;2246;42.664;23.278;2023-05-24T03:48:27;7.38;;;4.78;;
4466;SDS011;2246;42.664;23.278;2023-05-24T03:50:53;8.85;;;4.85;;
4466;SDS011;2246;42.664;23.278;2023-05-24T03:53:19;10.13;;;6.30;;
4466;SDS011;2246;42.664;23.278;2023-05-24T03:55:45;8.23;;;5.85;;
4466;SDS011;2246;42.664;23.278;2023-05-24T03:58:11;9.85;;;5.70;;
4466;SDS011;2246;42.664;23.278;2023-05-24T04:00:37;10.68;;;5.80;;
4466;SDS011;2246;42.664;23.278;2023-05-24T04:03:04;11.60;;;5.45;;
4466;SDS011;2246;42.664;23.278;2023-05-24T04:05:33;11.30;;;6.15;;
4466;SDS011;2246;42.664;23.278;2023-05-24T04:07:59;12.68;;;6.57;;
4466;SDS011;2246;42.664;23.278;2023-05-24T04:10:25;10.07;;;6.07;;
4466;SDS011;2246;42.664;23.278;2023-05-24T04:12:51;10.68;;;6.93;;
4466;SDS011;2246;42.664;23.278;2023-05-24T04:15:18;10.68;;;7.00;;
4466;SDS011;2246;42.664;23.278;2023-05-24T04:17:44;10.18;;;5.80;;
4466;SDS011;2246;42.664;23.278;2023-05-24T04:20:11;11.40;;;6.90;;
4466;SDS011;2246;42.664;23.278;2023-05-24T04:22:37;18.80;;;9.73;;
4466;SDS011;2246;42.664;23.278;2023-05-24T04:25:04;12.20;;;6.32;;
4466;SDS011;2246;42.664;23.278;2023-05-24T04:27:30;10.52;;;5.53;;
4466;SDS011;2246;42.664;23.278;2023-05-24T04:29:56;10.35;;;5.90;;
4466;SDS011;2246;42.664;23.278;2023-05-24T04:32:22;10.00;;;5.28;;
4466;SDS011;2246;42.664;23.278;2023-05-24T04:34:49;16.27;;;5.40;;
4466;SDS011;2246;42.664;23.278;2023-05-24T04:37:16;8.65;;;5.22;;
4466;SDS011;2246;42.664;23.278;2023-05-24T04:39:43;9.45;;;5.53;;
4466;SDS011;2246;42.664;23.278;2023-05-24T04:42:09;10.60;;;6.10;;
4466;SDS011;2246;42.664;23.278;2023-05-24T04:44:36;19.15;;;5.82;;
4466;SDS011;2246;42.664;23.278;2023-05-24T04:47:02;14.68;;;6.63;;
4466;SDS011;2246;42.664;23.278;2023-05-24T04:49:28;15.32;;;5.88;;
4466;SDS011;2246;42.664;23.278;2023-05-24T04:51:55;14.80;;;6.20;;
4466;SDS011;2246;42.664;23.278;2023-05-24T04:54:21;14.10;;;6.53;;
4466;SDS011;2246;42.664;23.278;2023-05-24T04:56:47;14.82;;;6.18;;
4466;SDS011;2246;42.664;23.278;2023-05-24T04:59:13;11.57;;;6.75;;
4466;SDS011;2246;42.664;23.278;2023-05-24T05:01:40;16.80;;;7.60;;
4466;SDS011;2246;42.664;23.278;2023-05-24T05:04:06;12.07;;;7.88;;
4466;SDS011;2246;42.664;23.278;2023-05-24T05:06:32;15.00;;;7.80;;
4466;SDS011;2246;42.664;23.278;2023-05-24T05:09:02;17.23;;;7.90;;
4466;SDS011;2246;42.664;23.278;2023-05-24T05:11:28;14.70;;;8.07;;
4466;SDS011;2246;42.664;23.278;2023-05-24T05:13:55;19.05;;;8.82;;
4466;SDS011;2246;42.664;23.278;2023-05-24T05:16:21;15.05;;;8.45;;
4466;SDS011;2246;42.664;23.278;2023-05-24T05:18:47;15.35;;;8.13;;
4466;SDS011;2246;42.664;23.278;2023-05-24T05:21:13;18.08;;;7.82;;
4466;SDS011;2246;42.664;23.278;2023-05-24T05:23:39;13.85;;;6.70;;
4466;SDS011;2246;42.664;23.278;2023-05-24T05:26:05;11.68;;;6.93;;
4466;SDS011;2246;42.664;23.278;2023-05-24T05:28:32;18.27;;;8.18;;
4466;SDS011;2246;42.664;23.278;2023-05-24T05:30:58;18.70;;;7.43;;
4466;SDS011;2246;42.664;23.278;2023-05-24T05:33:24;10.10;;;6.13;;
4466;SDS011;2246;42.664;23.278;2023-05-24T05:35:50;17.38;;;7.97;;
4466;SDS011;2246;42.664;23.278;2023-05-24T05:38:16;13.43;;;7.93;;
4466;SDS011;2246;42.664;23.278;2023-05-24T05:40:42;14.88;;;7.03;;
4466;SDS011;2246;42.664;23.278;2023-05-24T05:43:08;17.88;;;7.10;;
4466;SDS011;2246;42.664;23.278;2023-05-24T05:45:34;19.52;;;7.18;;
4466;SDS011;2246;42.664;23.278;2023-05-24T05:48:00;13.20;;;7.13;;
4466;SDS011;2246;42.664;23.278;2023-05-24T05:50:26;14.52;;;8.38;;
4466;SDS011;2246;42.664;23.278;2023-05-24T05:52:52;11.80;;;7.38;;
4466;SDS011;2246;42.664;23.278;2023-05-24T05:55:18;16.50;;;7.80;;
4466;SDS011;2246;42.664;23.278;2023-05-24T05:57:44;13.25;;;7.90;;
4466;SDS011;2246;42.664;23.278;2023-05-24T06:00:10;12.60;;;7.93;;
4466;SDS011;2246;42.664;23.278;2023-05-24T06:02:36;17.17;;;9.10;;
4466;SDS011;2246;42.664;23.278;2023-05-24T06:05:02;17.15;;;8.15;;
4466;SDS011;2246;42.664;23.278;2023-05-24T06:07:28;14.43;;;7.85;;
4466;SDS011;2246;42.664;23.278;2023-05-24T06:09:55;17.98;;;8.20;;
4466;SDS011;2246;42.664;23.278;2023-05-24T06:12:21;18.55;;;7.72;;
4466;SDS011;2246;42.664;23.278;2023-05-24T06:14:47;13.55;;;7.32;;
4466;SDS011;2246;42.664;23.278;2023-05-24T06:17:15;17.45;;;8.55;;
4466;SDS011;2246;42.664;23.278;2023-05-24T06:19:41;18.35;;;7.85;;
4466;SDS011;2246;42.664;23.278;2023-05-24T06:22:07;14.45;;;8.20;;
4466;SDS011;2246;42.664;23.278;2023-05-24T06:24:33;13.55;;;7.50;;
4466;SDS011;2246;42.664;23.278;2023-05-24T06:27:00;14.50;;;8.50;;
4466;SDS011;2246;42.664;23.278;2023-05-24T06:29:26;12.57;;;8.80;;
4466;SDS011;2246;42.664;23.278;2023-05-24T06:31:52;15.10;;;7.97;;
4466;SDS011;2246;42.664;23.278;2023-05-24T06:34:18;14.65;;;7.60;;
4466;SDS011;2246;42.664;23.278;2023-05-24T06:36:47;13.00;;;7.22;;
4466;SDS011;2246;42.664;23.278;2023-05-24T06:39:15;17.20;;;7.95;;
4466;SDS011;2246;42.664;23.278;2023-05-24T06:41:42;17.92;;;7.32;;
4466;SDS011;2246;42.664;23.278;2023-05-24T06:44:08;16.77;;;7.17;;
4466;SDS011;2246;42.664;23.278;2023-05-24T06:46:35;16.23;;;6.90;;
4466;SDS011;2246;42.664;23.278;2023-05-24T06:49:01;15.32;;;6.95;;
4466;SDS011;2246;42.664;23.278;2023-05-24T06:51:27;13.23;;;7.40;;
4466;SDS011;2246;42.664;23.278;2023-05-24T06:53:53;13.85;;;7.68;;
4466;SDS011;2246;42.664;23.278;2023-05-24T06:56:19;11.45;;;7.05;;
4466;SDS011;2246;42.664;23.278;2023-05-24T06:58:45;13.80;;;6.57;;
4466;SDS011;2246;42.664;23.278;2023-05-24T07:01:12;11.25;;;6.88;;
4466;SDS011;2246;42.664;23.278;2023-05-24T07:03:38;14.50;;;6.72;;
4466;SDS011;2246;42.664;23.278;2023-05-24T07:06:04;14.65;;;7.45;;
4466;SDS011;2246;42.664;23.278;2023-05-24T07:08:31;14.85;;;7.28;;
4466;SDS011;2246;42.664;23.278;2023-05-24T07:10:57;12.77;;;6.57;;
4466;SDS011;2246;42.664;23.278;2023-05-24T07:13:23;13.05;;;7.25;;
4466;SDS011;2246;42.664;23.278;2023-05-24T07:15:49;16.38;;;8.00;;
4466;SDS011;2246;42.664;23.278;2023-05-24T07:18:15;12.75;;;7.00;;
4466;SDS011;2246;42.664;23.278;2023-05-24T07:20:41;20.15;;;7.15;;
4466;SDS011;2246;42.664;23.278;2023-05-24T07:23:07;16.42;;;7.00;;
4466;SDS011;2246;42.664;23.278;2023-05-24T07:25:33;13.85;;;7.65;;
4466;SDS011;2246;42.664;23.278;2023-05-24T07:27:59;14.57;;;6.10;;
4466;SDS011;2246;42.664;23.278;2023-05-24T07:30:25;14.00;;;6.88;;
4466;SDS011;2246;42.664;23.278;2023-05-24T07:32:52;15.65;;;6.65;;
4466;SDS011;2246;42.664;23.278;2023-05-24T07:35:18;12.32;;;6.25;;
4466;SDS011;2246;42.664;23.278;2023-05-24T07:37:45;19.05;;;6.10;;
4466;SDS011;2246;42.664;23.278;2023-05-24T07:40:11;13.02;;;5.60;;
4466;SDS011;2246;42.664;23.278;2023-05-24T07:42:38;11.43;;;5.07;;
4466;SDS011;2246;42.664;23.278;2023-05-24T07:45:05;16.40;;;4.82;;
4466;SDS011;2246;42.664;23.278;2023-05-24T07:47:32;10.02;;;4.97;;
4466;SDS011;2246;42.664;23.278;2023-05-24T07:49:59;11.27;;;5.55;;
4466;SDS011;2246;42.664;23.278;2023-05-24T07:52:25;10.90;;;5.15;;
4466;SDS011;2246;42.664;23.278;2023-05-24T07:54:51;11.53;;;5.50;;
4466;SDS011;2246;42.664;23.278;2023-05-24T07:57:18;9.88;;;6.20;;
4466;SDS011;2246;42.664;23.278;2023-05-24T07:59:44;13.60;;;6.85;;
4466;SDS011;2246;42.664;23.278;2023-05-24T08:02:10;13.27;;;6.57;;
4466;SDS011;2246;42.664;23.278;2023-05-24T08:04:37;15.18;;;5.82;;
4466;SDS011;2246;42.664;23.278;2023-05-24T08:07:04;11.90;;;5.45;;
4466;SDS011;2246;42.664;23.278;2023-05-24T08:09:30;12.50;;;5.45;;
4466;SDS011;2246;42.664;23.278;2023-05-24T08:12:02;11.55;;;5.32;;
4466;SDS011;2246;42.664;23.278;2023-05-24T08:14:28;10.55;;;5.05;;
4466;SDS011;2246;42.664;23.278;2023-05-24T08:16:54;14.20;;;5.25;;
4466;SDS011;2246;42.664;23.278;2023-05-24T08:19:20;12.35;;;5.05;;
4466;SDS011;2246;42.664;23.278;2023-05-24T08:21:47;11.13;;;4.80;;
4466;SDS011;2246;42.664;23.278;2023-05-24T08:24:13;7.28;;;5.03;;
4466;SDS011;2246;42.664;23.278;2023-05-24T08:26:39;12.38;;;4.97;;
4466;SDS011;2246;42.664;23.278;2023-05-24T08:29:05;10.90;;;5.63;;
4466;SDS011;2246;42.664;23.278;2023-05-24T08:31:31;7.78;;;5.20;;
4466;SDS011;2246;42.664;23.278;2023-05-24T08:33:58;10.55;;;3.97;;
4466;SDS011;2246;42.664;23.278;2023-05-24T08:36:26;15.25;;;3.60;;
4466;SDS011;2246;42.664;23.278;2023-05-24T08:38:52;7.30;;;3.88;;
4466;SDS011;2246;42.664;23.278;2023-05-24T08:41:18;7.20;;;3.60;;
4466;SDS011;2246;42.664;23.278;2023-05-24T08:43:45;7.13;;;3.63;;
4466;SDS011;2246;42.664;23.278;2023-05-24T08:46:13;10.60;;;3.53;;
4466;SDS011;2246;42.664;23.278;2023-05-24T08:48:43;8.27;;;3.97;;
4466;SDS011;2246;42.664;23.278;2023-05-24T08:51:09;7.93;;;4.05;;
4466;SDS011;2246;42.664;23.278;2023-05-24T08:53:36;9.60;;;3.97;;
4466;SDS011;2246;42.664;23.278;2023-05-24T08:56:03;6.43;;;3.73;;
4466;SDS011;2246;42.664;23.278;2023-05-24T08:58:30;8.15;;;3.30;;
4466;SDS011;2246;42.664;23.278;2023-05-24T09:00:58;5.63;;;3.28;;
4466;SDS011;2246;42.664;23.278;2023-05-24T09:03:24;4.47;;;3.08;;
4466;SDS011;2246;42.664;23.278;2023-05-24T09:05:50;6.53;;;3.63;;
4466;SDS011;2246;42.664;23.278;2023-05-24T09:08:17;6.40;;;3.38;;
4466;SDS011;2246;42.664;23.278;2023-05-24T09:10:44;11.00;;;3.45;;
4466;SDS011;2246;42.664;23.278;2023-05-24T09:13:11;4.75;;;3.30;;
4466;SDS011;2246;42.664;23.278;2023-05-24T09:15:40;8.55;;;3.05;;
4466;SDS011;2246;42.664;23.278;2023-05-24T09:18:06;9.20;;;3.47;;
4466;SDS011;2246;42.664;23.278;2023-05-24T09:20:32;5.60;;;3.10;;
4466;SDS011;2246;42.664;23.278;2023-05-24T09:22:58;6.78;;;3.88;;
4466;SDS011;2246;42.664;23.278;2023-05-24T09:25:25;7.13;;;2.67;;
4466;SDS011;2246;42.664;23.278;2023-05-24T09:27:54;5.85;;;3.10;;
4466;SDS011;2246;42.664;23.278;2023-05-24T09:30:20;6.50;;;3.17;;
4466;SDS011;2246;42.664;23.278;2023-05-24T09:32:57;5.90;;;3.00;;
4466;SDS011;2246;42.664;23.278;2023-05-24T09:35:23;7.53;;;2.97;;
4466;SDS011;2246;42.664;23.278;2023-05-24T09:40:17;4.97;;;3.20;;
4466;SDS011;2246;42.664;23.278;2023-05-24T09:42:46;6.43;;;3.53;;
4466;SDS011;2246;42.664;23.278;2023-05-24T09:45:15;7.13;;;4.07;;
4466;SDS011;2246;42.664;23.278;2023-05-24T09:47:42;5.88;;;3.40;;
4466;SDS011;2246;42.664;23.278;2023-05-24T09:50:12;4.38;;;2.45;;
4466;SDS011;2246;42.664;23.278;2023-05-24T09:52:39;8.98;;;2.50;;
4466;SDS011;2246;42.664;23.278;2023-05-24T09:57:37;6.72;;;2.97;;
4466;SDS011;2246;42.664;23.278;2023-05-24T10:00:04;5.50;;;3.40;;
4466;SDS011;2246;42.664;23.278;2023-05-24T10:02:38;4.82;;;3.03;;
4466;SDS011;2246;42.664;23.278;2023-05-24T10:05:04;4.32;;;2.67;;
4466;SDS011;2246;42.664;23.278;2023-05-24T10:07:32;7.63;;;2.83;;
4466;SDS011;2246;42.664;23.278;2023-05-24T10:09:58;4.93;;;2.55;;
4466;SDS011;2246;42.664;23.278;2023-05-24T10:12:24;5.83;;;2.40;;
4466;SDS011;2246;42.664;23.278;2023-05-24T10:14:51;3.60;;;2.67;;
4466;SDS011;2246;42.664;23.278;2023-05-24T10:17:21;8.40;;;2.72;;
4466;SDS011;2246;42.664;23.278;2023-05-24T10:19:47;4.47;;;2.50;;
4466;SDS011;2246;42.664;23.278;2023-05-24T10:22:15;5.10;;;2.50;;
4466;SDS011;2246;42.664;23.278;2023-05-24T10:24:45;4.47;;;2.40;;
4466;SDS011;2246;42.664;23.278;2023-05-24T10:27:13;3.30;;;2.60;;
4466;SDS011;2246;42.664;23.278;2023-05-24T10:29:43;4.80;;;2.30;;
4466;SDS011;2246;42.664;23.278;2023-05-24T10:32:13;5.13;;;2.40;;
4466;SDS011;2246;42.664;23.278;2023-05-24T10:34:40;5.05;;;3.17;;
4466;SDS011;2246;42.664;23.278;2023-05-24T10:37:07;4.20;;;2.22;;
4466;SDS011;2246;42.664;23.278;2023-05-24T10:39:33;4.22;;;2.58;;
4466;SDS011;2246;42.664;23.278;2023-05-24T10:42:03;7.80;;;2.58;;
4466;SDS011;2246;42.664;23.278;2023-05-24T10:44:30;4.80;;;2.83;;
4466;SDS011;2246;42.664;23.278;2023-05-24T10:49:32;4.47;;;2.70;;
4466;SDS011;2246;42.664;23.278;2023-05-24T10:52:05;8.65;;;2.63;;
4466;SDS011;2246;42.664;23.278;2023-05-24T10:54:32;4.15;;;2.70;;
4466;SDS011;2246;42.664;23.278;2023-05-24T10:57:00;6.70;;;2.80;;
4466;SDS011;2246;42.664;23.278;2023-05-24T11:01:57;5.40;;;2.70;;
4466;SDS011;2246;42.664;23.278;2023-05-24T11:04:24;5.20;;;2.50;;
4466;SDS011;2246;42.664;23.278;2023-05-24T11:09:23;7.95;;;3.63;;
4466;SDS011;2246;42.664;23.278;2023-05-24T11:12:09;4.00;;;2.47;;
4466;SDS011;2246;42.664;23.278;2023-05-24T11:14:38;5.03;;;3.05;;
4466;SDS011;2246;42.664;23.278;2023-05-24T11:17:07;5.38;;;2.50;;
4466;SDS011;2246;42.664;23.278;2023-05-24T11:19:35;6.38;;;2.50;;
4466;SDS011;2246;42.664;23.278;2023-05-24T11:22:02;6.75;;;2.72;;
4466;SDS011;2246;42.664;23.278;2023-05-24T11:24:29;4.80;;;2.72;;
4466;SDS011;2246;42.664;23.278;2023-05-24T11:26:55;4.65;;;2.80;;
4466;SDS011;2246;42.664;23.278;2023-05-24T11:29:22;4.13;;;2.47;;
4466;SDS011;2246;42.664;23.278;2023-05-24T11:31:49;6.03;;;2.55;;
4466;SDS011;2246;42.664;23.278;2023-05-24T11:34:16;4.85;;;2.75;;
4466;SDS011;2246;42.664;23.278;2023-05-24T11:36:44;4.55;;;2.58;;
4466;SDS011;2246;42.664;23.278;2023-05-24T11:39:11;4.68;;;2.85;;
4466;SDS011;2246;42.664;23.278;2023-05-24T11:41:38;8.97;;;2.67;;
4466;SDS011;2246;42.664;23.278;2023-05-24T11:44:07;4.70;;;2.33;;
4466;SDS011;2246;42.664;23.278;2023-05-24T11:46:34;3.47;;;2.42;;
4466;SDS011;2246;42.664;23.278;2023-05-24T11:49:00;5.87;;;2.77;;
4466;SDS011;2246;42.664;23.278;2023-05-24T11:51:31;4.00;;;2.70;;
4466;SDS011;2246;42.664;23.278;2023-05-24T11:53:57;5.85;;;2.40;;
4466;SDS011;2246;42.664;23.278;2023-05-24T11:56:24;3.80;;;2.53;;
4466;SDS011;2246;42.664;23.278;2023-05-24T12:01:26;4.72;;;2.50;;
4466;SDS011;2246;42.664;23.278;2023-05-24T12:03:53;4.20;;;2.13;;
4466;SDS011;2246;42.664;23.278;2023-05-24T12:06:19;4.15;;;2.38;;
4466;SDS011;2246;42.664;23.278;2023-05-24T12:08:46;5.38;;;2.42;;
4466;SDS011;2246;42.664;23.278;2023-05-24T12:11:13;6.65;;;3.40;;
4466;SDS011;2246;42.664;23.278;2023-05-24T12:13:40;6.10;;;2.57;;
4466;SDS011;2246;42.664;23.278;2023-05-24T12:16:06;6.90;;;3.33;;
4466;SDS011;2246;42.664;23.278;2023-05-24T12:18:32;4.47;;;2.72;;
4466;SDS011;2246;42.664;23.278;2023-05-24T12:20:58;4.57;;;2.85;;
4466;SDS011;2246;42.664;23.278;2023-05-24T12:23:25;5.60;;;3.13;;
4466;SDS011;2246;42.664;23.278;2023-05-24T12:25:56;5.50;;;2.60;;
4466;SDS011;2246;42.664;23.278;2023-05-24T12:28:23;8.88;;;2.67;;
4466;SDS011;2246;42.664;23.278;2023-05-24T12:30:49;9.57;;;2.55;;
4466;SDS011;2246;42.664;23.278;2023-05-24T12:33:19;4.28;;;2.15;;
4466;SDS011;2246;42.664;23.278;2023-05-24T12:35:45;4.72;;;3.03;;
4466;SDS011;2246;42.664;23.278;2023-05-24T12:38:11;9.48;;;2.60;;
4466;SDS011;2246;42.664;23.278;2023-05-24T12:40:39;5.90;;;2.70;;
4466;SDS011;2246;42.664;23.278;2023-05-24T12:43:06;3.45;;;2.25;;
4466;SDS011;2246;42.664;23.278;2023-05-24T12:45:32;4.72;;;2.50;;
4466;SDS011;2246;42.664;23.278;2023-05-24T12:47:58;7.20;;;2.28;;
4466;SDS011;2246;42.664;23.278;2023-05-24T12:50:26;4.28;;;2.38;;
4466;SDS011;2246;42.664;23.278;2023-05-24T12:52:52;8.80;;;2.85;;
4466;SDS011;2246;42.664;23.278;2023-05-24T12:55:19;5.22;;;2.60;;
4466;SDS011;2246;42.664;23.278;2023-05-24T12:57:45;8.15;;;4.50;;
4466;SDS011;2246;42.664;23.278;2023-05-24T13:00:18;5.15;;;3.00;;
4466;SDS011;2246;42.664;23.278;2023-05-24T13:02:45;5.32;;;2.58;;
4466;SDS011;2246;42.664;23.278;2023-05-24T13:05:12;4.55;;;2.80;;
4466;SDS011;2246;42.664;23.278;2023-05-24T13:07:38;3.65;;;2.25;;
4466;SDS011;2246;42.664;23.278;2023-05-24T13:10:05;5.77;;;2.40;;
4466;SDS011;2246;42.664;23.278;2023-05-24T13:12:32;6.15;;;3.00;;
4466;SDS011;2246;42.664;23.278;2023-05-24T13:14:58;3.67;;;2.63;;
4466;SDS011;2246;42.664;23.278;2023-05-24T13:17:24;4.10;;;2.35;;
4466;SDS011;2246;42.664;23.278;2023-05-24T13:19:50;5.13;;;2.40;;
4466;SDS011;2246;42.664;23.278;2023-05-24T13:22:16;4.60;;;2.55;;
4466;SDS011;2246;42.664;23.278;2023-05-24T13:24:42;4.32;;;2.42;;
4466;SDS011;2246;42.664;23.278;2023-05-24T13:27:08;5.00;;;2.63;;
4466;SDS011;2246;42.664;23.278;2023-05-24T13:29:34;5.13;;;2.83;;
4466;SDS011;2246;42.664;23.278;2023-05-24T13:32:01;7.15;;;3.28;;
4466;SDS011;2246;42.664;23.278;2023-05-24T13:34:27;6.13;;;3.00;;
4466;SDS011;2246;42.664;23.278;2023-05-24T13:36:53;5.72;;;2.78;;
4466;SDS011;2246;42.664;23.278;2023-05-24T13:39:20;9.52;;;2.63;;
4466;SDS011;2246;42.664;23.278;2023-05-24T13:41:46;6.22;;;3.03;;
4466;SDS011;2246;42.664;23.278;2023-05-24T13:44:13;6.60;;;2.70;;
4466;SDS011;2246;42.664;23.278;2023-05-24T13:46:39;4.93;;;2.97;;
4466;SDS011;2246;42.664;23.278;2023-05-24T13:49:06;6.35;;;3.00;;
4466;SDS011;2246;42.664;23.278;2023-05-24T13:51:33;8.50;;;2.75;;
4466;SDS011;2246;42.664;23.278;2023-05-24T13:53:59;8.45;;;3.30;;
4466;SDS011;2246;42.664;23.278;2023-05-24T13:56:25;8.60;;;3.22;;
4466;SDS011;2246;42.664;23.278;2023-05-24T13:58:56;6.50;;;3.30;;
4466;SDS011;2246;42.664;23.278;2023-05-24T14:01:23;7.43;;;3.75;;
4466;SDS011;2246;42.664;23.278;2023-05-24T14:03:49;14.05;;;3.47;;
4466;SDS011;2246;42.664;23.278;2023-05-24T14:06:16;8.57;;;3.20;;
4466;SDS011;2246;42.664;23.278;2023-05-24T14:08:42;7.25;;;3.75;;
4466;SDS011;2246;42.664;23.278;2023-05-24T14:11:08;5.70;;;3.17;;
4466;SDS011;2246;42.664;23.278;2023-05-24T14:13:36;8.18;;;3.22;;
4466;SDS011;2246;42.664;23.278;2023-05-24T14:16:03;6.97;;;3.00;;
4466;SDS011;2246;42.664;23.278;2023-05-24T14:18:29;5.93;;;3.08;;
4466;SDS011;2246;42.664;23.278;2023-05-24T14:20:55;6.95;;;3.15;;
4466;SDS011;2246;42.664;23.278;2023-05-24T14:23:21;7.40;;;3.28;;
4466;SDS011;2246;42.664;23.278;2023-05-24T14:25:47;7.28;;;2.83;;
4466;SDS011;2246;42.664;23.278;2023-05-24T14:28:15;6.18;;;2.85;;
4466;SDS011;2246;42.664;23.278;2023-05-24T14:30:41;12.27;;;3.60;;
4466;SDS011;2246;42.664;23.278;2023-05-24T14:33:07;7.05;;;3.83;;
4466;SDS011;2246;42.664;23.278;2023-05-24T14:35:36;6.50;;;4.30;;
4466;SDS011;2246;42.664;23.278;2023-05-24T14:40:30;6.57;;;3.45;;
4466;SDS011;2246;42.664;23.278;2023-05-24T14:42:57;6.13;;;3.35;;
4466;SDS011;2246;42.664;23.278;2023-05-24T14:45:24;5.57;;;3.38;;
4466;SDS011;2246;42.664;23.278;2023-05-24T14:47:50;13.70;;;3.95;;
4466;SDS011;2246;42.664;23.278;2023-05-24T14:50:16;8.68;;;3.53;;
4466;SDS011;2246;42.664;23.278;2023-05-24T14:52:42;6.38;;;3.75;;
4466;SDS011;2246;42.664;23.278;2023-05-24T14:55:08;15.30;;;8.43;;
4466;SDS011;2246;42.664;23.278;2023-05-24T14:57:34;12.93;;;6.28;;
4466;SDS011;2246;42.664;23.278;2023-05-24T15:00:01;9.73;;;3.65;;
4466;SDS011;2246;42.664;23.278;2023-05-24T15:02:27;7.78;;;3.80;;
4466;SDS011;2246;42.664;23.278;2023-05-24T15:04:53;5.50;;;3.80;;
4466;SDS011;2246;42.664;23.278;2023-05-24T15:07:19;10.10;;;4.07;;
4466;SDS011;2246;42.664;23.278;2023-05-24T15:09:46;7.50;;;4.30;;
4466;SDS011;2246;42.664;23.278;2023-05-24T15:12:12;10.43;;;3.88;;
4466;SDS011;2246;42.664;23.278;2023-05-24T15:14:39;7.72;;;3.53;;
4466;SDS011;2246;42.664;23.278;2023-05-24T15:17:05;8.98;;;2.92;;
4466;SDS011;2246;42.664;23.278;2023-05-24T15:19:31;5.55;;;3.10;;
4466;SDS011;2246;42.664;23.278;2023-05-24T15:21:57;6.07;;;3.05;;
4466;SDS011;2246;42.664;23.278;2023-05-24T15:24:23;4.35;;;3.40;;